createdAt,value
2019-04-07T00:00:43.648Z,8.95
2019-04-07T00:03:12.940Z,8.93
2019-04-07T00:05:42.577Z,8.88
2019-04-07T00:08:12.690Z,8.84
2019-04-07T00:10:42.471Z,8.80
2019-04-07T00:13:12.411Z,8.68
2019-04-07T00:15:41.580Z,8.63
2019-04-07T00:18:10.740Z,8.54
2019-04-07T00:20:42.012Z,8.58
2019-04-07T00:23:13.171Z,8.53
2019-04-07T00:25:42.994Z,8.46
2019-04-07T00:28:12.192Z,8.41
2019-04-07T00:30:41.452Z,8.40
2019-04-07T00:33:11.278Z,8.33
2019-04-07T00:35:40.487Z,8.29
2019-04-07T00:38:09.690Z,8.23
2019-04-07T00:40:39.161Z,8.23
2019-04-07T00:43:08.798Z,8.23
2019-04-07T00:45:38.010Z,8.24
2019-04-07T00:48:07.733Z,8.28
2019-04-07T00:50:37.032Z,8.26
2019-04-07T00:53:07.819Z,8.24
2019-04-07T00:55:37.487Z,8.25
2019-04-07T00:58:07.128Z,8.30
2019-04-07T01:00:38.808Z,8.33
2019-04-07T01:03:08.388Z,8.40
2019-04-07T01:05:40.503Z,8.52
2019-04-07T01:08:08.499Z,8.51
2019-04-07T01:10:38.061Z,8.51
2019-04-07T01:13:07.705Z,8.52
2019-04-07T01:15:39.747Z,8.64
2019-04-07T01:18:08.920Z,8.70
2019-04-07T01:20:38.161Z,8.77
2019-04-07T01:23:08.103Z,8.80
2019-04-07T01:25:37.888Z,8.81
2019-04-07T01:28:07.151Z,8.87
2019-04-07T01:30:37.077Z,8.86
2019-04-07T01:33:06.465Z,8.66
2019-04-07T01:35:45.084Z,8.62
2019-04-07T01:38:07.195Z,8.61
2019-04-07T01:40:37.435Z,8.50
2019-04-07T01:43:12.795Z,8.36
2019-04-07T01:45:56.206Z,8.30
2019-04-07T01:48:44.762Z,8.24
2019-04-07T01:51:32.217Z,8.24
2019-04-07T01:54:24.058Z,8.24
2019-04-07T01:57:18.452Z,8.14
2019-04-07T02:00:22.654Z,8.14
2019-04-07T02:03:10.947Z,7.95
2019-04-07T02:06:04.469Z,7.85
2019-04-07T02:09:04.830Z,7.89
2019-04-07T02:12:05.960Z,7.95
2019-04-07T02:14:54.869Z,8.00
2019-04-07T02:17:43.922Z,7.95
2019-04-07T02:20:50.809Z,7.84
2019-04-07T02:23:28.206Z,7.96
2019-04-07T02:26:19.380Z,7.71
2019-04-07T02:29:08.025Z,7.59
2019-04-07T02:31:46.206Z,7.63
2019-04-07T02:34:22.093Z,7.66
2019-04-07T02:37:04.687Z,7.47
2019-04-07T02:39:50.677Z,7.45
2019-04-07T02:42:38.364Z,7.60
2019-04-07T02:45:17.763Z,7.42
2019-04-07T02:48:12.539Z,7.43
2019-04-07T02:50:47.843Z,7.37
2019-04-07T02:53:42.001Z,7.23
2019-04-07T02:56:33.681Z,7.19
2019-04-07T02:59:34.309Z,7.08
2019-04-07T03:02:20.736Z,7.00
2019-04-07T03:05:08.142Z,6.88
2019-04-07T03:07:53.155Z,6.88
2019-04-07T03:10:29.127Z,6.84
2019-04-07T03:13:16.846Z,6.76
2019-04-07T03:16:00.845Z,6.69
2019-04-07T03:18:39.078Z,6.92
2019-04-07T03:21:26.784Z,6.78
2019-04-07T03:24:27.039Z,6.65
2019-04-07T03:27:22.070Z,6.59
2019-04-07T03:30:13.988Z,6.50
2019-04-07T03:33:05.816Z,6.45
2019-04-07T03:36:18.624Z,6.46
2019-04-07T03:39:07.449Z,6.48
2019-04-07T03:41:45.805Z,6.34
2019-04-07T03:44:26.645Z,6.24
2019-04-07T03:47:10.322Z,6.28
2019-04-07T03:49:59.711Z,6.29
2019-04-07T03:52:36.712Z,6.18
2019-04-07T03:55:21.358Z,6.22
2019-04-07T03:58:08.609Z,6.16
2019-04-07T04:01:22.305Z,6.22
2019-04-07T04:04:05.490Z,6.31
2019-04-07T04:06:53.440Z,6.29
2019-04-07T04:09:32.435Z,6.20
2019-04-07T04:12:30.094Z,6.21
2019-04-07T04:15:03.595Z,6.17
2019-04-07T04:17:36.145Z,6.25
2019-04-07T04:20:07.207Z,6.19
2019-04-07T04:22:37.741Z,6.14
2019-04-07T04:25:08.501Z,6.11
2019-04-07T04:27:38.825Z,6.00
2019-04-07T04:30:10.275Z,6.08
2019-04-07T04:32:40.007Z,6.05
2019-04-07T04:35:10.902Z,5.95
2019-04-07T04:37:46.605Z,6.03
2019-04-07T04:40:14.053Z,5.98
2019-04-07T04:42:45.265Z,5.96
2019-04-07T04:45:14.436Z,5.94
2019-04-07T04:47:43.614Z,5.84
2019-04-07T04:50:12.949Z,5.90
2019-04-07T04:52:42.802Z,5.93
2019-04-07T04:55:12.043Z,5.99
2019-04-07T04:57:41.229Z,5.92
2019-04-07T05:00:10.703Z,5.85
2019-04-07T05:02:39.862Z,5.76
2019-04-07T05:05:09.952Z,5.74
2019-04-07T05:07:49.784Z,5.71
2019-04-07T05:10:11.124Z,5.72
2019-04-07T05:12:42.003Z,5.80
2019-04-07T05:15:11.937Z,5.79
2019-04-07T05:17:41.914Z,5.83
2019-04-07T05:20:12.341Z,5.86
2019-04-07T05:22:42.169Z,5.99
2019-04-07T05:25:12.039Z,6.06
2019-04-07T05:27:41.612Z,6.10
2019-04-07T05:30:11.237Z,6.11
2019-04-07T05:32:41.034Z,6.10
2019-04-07T05:35:10.867Z,6.25
2019-04-07T05:37:40.628Z,6.30
2019-04-07T05:40:11.323Z,6.40
2019-04-07T05:42:40.581Z,6.50
2019-04-07T05:45:10.168Z,6.58
2019-04-07T05:47:47.298Z,6.70
2019-04-07T05:50:14.449Z,6.75
2019-04-07T05:52:43.739Z,6.81
2019-04-07T05:55:13.070Z,6.89
2019-04-07T05:57:42.305Z,7.03
2019-04-07T06:00:15.582Z,7.09
2019-04-07T06:02:45.780Z,7.17
2019-04-07T06:05:17.452Z,7.25
2019-04-07T06:07:47.110Z,7.36
2019-04-07T06:10:16.747Z,7.41
2019-04-07T06:12:47.389Z,7.52
2019-04-07T06:15:21.016Z,7.57
2019-04-07T06:17:48.016Z,7.72
2019-04-07T06:20:20.094Z,7.89
2019-04-07T06:22:53.625Z,8.05
2019-04-07T06:25:21.638Z,8.18
2019-04-07T06:27:51.024Z,8.30
2019-04-07T06:30:22.030Z,8.42
2019-04-07T06:32:51.573Z,8.55
2019-04-07T06:35:24.266Z,8.62
2019-04-07T06:37:55.790Z,8.72
2019-04-07T06:40:24.534Z,8.80
2019-04-07T06:42:53.726Z,8.92
2019-04-07T06:45:26.362Z,9.01
2019-04-07T06:47:57.728Z,9.19
2019-04-07T06:50:56.629Z,9.31
2019-04-07T06:53:41.493Z,9.44
2019-04-07T06:56:34.269Z,9.67
2019-04-07T06:59:28.488Z,9.91
2019-04-07T07:02:19.642Z,10.09
2019-04-07T07:05:08.442Z,10.35
2019-04-07T07:07:57.302Z,10.48
2019-04-07T07:10:38.995Z,10.59
2019-04-07T07:13:35.334Z,10.62
2019-04-07T07:16:23.899Z,11.02
2019-04-07T07:19:18.461Z,11.13
2019-04-07T07:22:13.177Z,11.26
2019-04-07T07:24:40.711Z,11.32
2019-04-07T07:27:11.374Z,11.43
2019-04-07T07:29:41.026Z,11.61
2019-04-07T07:32:10.290Z,11.76
2019-04-07T07:34:42.004Z,11.96
2019-04-07T07:37:10.635Z,11.92
2019-04-07T07:39:42.617Z,12.07
2019-04-07T07:42:11.424Z,12.15
2019-04-07T07:44:41.813Z,12.33
2019-04-07T07:47:11.874Z,12.43
2019-04-07T07:49:42.306Z,12.52
2019-04-07T07:52:11.732Z,12.72
2019-04-07T07:54:42.149Z,12.86
2019-04-07T07:57:14.426Z,12.90
2019-04-07T07:59:44.049Z,13.13
2019-04-07T08:02:16.784Z,13.20
2019-04-07T08:04:44.910Z,13.23
2019-04-07T08:07:16.487Z,13.25
2019-04-07T08:09:47.051Z,13.43
2019-04-07T08:12:16.396Z,13.69
2019-04-07T08:14:49.579Z,13.76
2019-04-07T08:17:17.257Z,14.05
2019-04-07T08:19:46.689Z,13.77
2019-04-07T08:22:27.303Z,14.04
2019-04-07T08:24:51.992Z,14.17
2019-04-07T08:27:21.669Z,14.20
2019-04-07T08:29:51.083Z,14.37
2019-04-07T08:32:24.264Z,14.43
2019-04-07T08:34:51.565Z,14.57
2019-04-07T08:37:21.240Z,14.78
2019-04-07T08:39:52.507Z,14.66
2019-04-07T08:42:22.577Z,14.86
2019-04-07T08:44:51.971Z,14.96
2019-04-07T08:47:23.129Z,15.18
2019-04-07T08:49:55.430Z,15.59
2019-04-07T08:52:26.010Z,15.63
2019-04-07T08:54:55.587Z,15.68
2019-04-07T08:57:27.270Z,15.79
2019-04-07T08:59:56.260Z,15.99
2019-04-07T09:02:28.454Z,15.98
2019-04-07T09:04:56.936Z,16.09
2019-04-07T09:07:26.638Z,16.47
2019-04-07T09:09:56.610Z,16.74
2019-04-07T09:12:28.888Z,16.80
2019-04-07T09:14:57.004Z,16.93
2019-04-07T09:17:51.154Z,16.90
2019-04-07T09:20:42.397Z,17.07
2019-04-07T09:23:29.480Z,16.97
2019-04-07T09:26:16.074Z,16.97
2019-04-07T09:29:07.175Z,17.12
2019-04-07T09:31:57.610Z,17.30
2019-04-07T09:35:07.143Z,17.43
2019-04-07T09:37:48.198Z,17.53
2019-04-07T09:40:25.504Z,17.62
2019-04-07T09:43:01.199Z,17.82
2019-04-07T09:46:03.417Z,18.00
2019-04-07T09:48:57.683Z,18.07
2019-04-07T09:51:58.298Z,18.13
2019-04-07T09:54:54.628Z,18.38
2019-04-07T09:57:42.209Z,18.71
2019-04-07T10:00:39.901Z,18.76
2019-04-07T10:03:20.502Z,18.43
2019-04-07T10:06:23.972Z,18.55
2019-04-07T10:09:24.306Z,18.60
2019-04-07T10:12:18.574Z,18.99
2019-04-07T10:15:12.956Z,18.83
2019-04-07T10:17:50.569Z,19.28
2019-04-07T10:20:38.412Z,19.16
2019-04-07T10:23:25.438Z,19.34
2019-04-07T10:26:05.232Z,19.51
2019-04-07T10:28:53.209Z,19.51
2019-04-07T10:31:28.369Z,19.48
2019-04-07T10:34:14.969Z,19.74
2019-04-07T10:37:04.877Z,19.74
2019-04-07T10:39:48.419Z,19.64
2019-04-07T10:42:45.904Z,19.73
2019-04-07T10:45:33.105Z,19.86
2019-04-07T10:48:13.448Z,19.71
2019-04-07T10:51:01.794Z,20.12
2019-04-07T10:53:58.925Z,20.11
2019-04-07T10:56:34.441Z,19.73
2019-04-07T10:59:34.516Z,19.73
2019-04-07T11:02:21.582Z,19.74
2019-04-07T11:05:08.539Z,19.95
2019-04-07T11:08:06.092Z,19.94
2019-04-07T11:10:45.279Z,20.04
2019-04-07T11:13:36.577Z,19.89
2019-04-07T11:16:24.769Z,20.03
2019-04-07T11:19:13.116Z,20.15
2019-04-07T11:22:04.614Z,20.23
2019-04-07T11:24:59.154Z,20.48
2019-04-07T11:27:53.972Z,20.47
2019-04-07T11:30:40.901Z,20.33
2019-04-07T11:33:35.070Z,20.37
2019-04-07T11:36:31.003Z,20.17
2019-04-07T11:39:23.070Z,20.29
2019-04-07T11:42:13.142Z,20.31
2019-04-07T11:44:58.547Z,20.55
2019-04-07T11:47:50.145Z,20.44
2019-04-07T11:50:35.061Z,20.45
2019-04-07T11:53:30.083Z,20.57
2019-04-07T11:56:11.693Z,20.58
2019-04-07T11:59:00.683Z,20.64
2019-04-07T12:01:50.109Z,20.94
2019-04-07T12:04:38.006Z,20.98
2019-04-07T12:07:35.557Z,21.06
2019-04-07T12:10:28.919Z,21.02
2019-04-07T12:13:20.096Z,21.42
2019-04-07T12:16:17.668Z,21.08
2019-04-07T12:18:55.906Z,21.58
2019-04-07T12:21:56.659Z,21.32
2019-04-07T12:24:45.550Z,21.73
2019-04-07T12:27:34.563Z,22.42
2019-04-07T12:30:14.368Z,21.81
2019-04-07T12:32:56.285Z,21.85
2019-04-07T12:35:34.023Z,21.92
2019-04-07T12:38:22.694Z,21.29
2019-04-07T12:41:23.431Z,22.14
2019-04-07T12:44:12.603Z,22.11
2019-04-07T12:47:13.472Z,22.72
2019-04-07T12:50:05.174Z,22.15
2019-04-07T12:52:51.885Z,22.53
2019-04-07T12:55:30.431Z,22.17
2019-04-07T12:58:10.782Z,21.88
2019-04-07T13:01:03.756Z,22.36
2019-04-07T13:03:40.793Z,23.11
2019-04-07T13:06:28.750Z,22.62
2019-04-07T13:09:27.814Z,22.50
2019-04-07T13:12:13.986Z,22.50
2019-04-07T13:15:03.430Z,22.63
2019-04-07T13:17:42.402Z,23.55
2019-04-07T13:20:37.255Z,23.57
2019-04-07T13:23:16.582Z,23.31
2019-04-07T13:25:56.350Z,22.86
2019-04-07T13:28:33.118Z,23.63
2019-04-07T13:31:27.662Z,24.90
2019-04-07T13:34:09.403Z,25.19
2019-04-07T13:37:17.476Z,25.45
2019-04-07T13:40:05.075Z,25.46
2019-04-07T13:42:43.043Z,25.80
2019-04-07T13:45:27.977Z,25.58
2019-04-07T13:48:24.056Z,26.10
2019-04-07T13:51:11.045Z,24.93
2019-04-07T13:54:05.771Z,25.04
2019-04-07T13:57:03.383Z,25.62
2019-04-07T14:00:07.676Z,25.35
2019-04-07T14:02:50.625Z,26.21
2019-04-07T14:05:32.088Z,24.60
2019-04-07T14:08:30.712Z,23.75
2019-04-07T14:11:17.631Z,23.57
2019-04-07T14:14:26.742Z,23.63
2019-04-07T14:17:24.754Z,24.37
2019-04-07T14:20:24.461Z,23.84
2019-04-07T14:23:16.461Z,23.91
2019-04-07T14:26:12.520Z,23.58
2019-04-07T14:28:58.775Z,23.96
2019-04-07T14:31:42.436Z,23.26
2019-04-07T14:34:50.984Z,24.44
2019-04-07T14:37:38.328Z,23.87
2019-04-07T14:40:38.885Z,24.21
2019-04-07T14:43:15.771Z,23.90
2019-04-07T14:46:00.097Z,25.53
2019-04-07T14:48:54.445Z,25.48
2019-04-07T14:51:42.793Z,24.54
2019-04-07T14:54:29.628Z,24.74
2019-04-07T14:57:10.460Z,24.08
2019-04-07T14:59:58.994Z,24.35
2019-04-07T15:02:30.167Z,25.11
2019-04-07T15:05:06.441Z,25.65
2019-04-07T15:07:47.044Z,26.13
2019-04-07T15:10:23.332Z,25.33
2019-04-07T15:12:55.792Z,25.46
2019-04-07T15:15:26.853Z,25.20
2019-04-07T15:17:56.262Z,24.78
2019-04-07T15:20:25.479Z,25.87
2019-04-07T15:22:58.393Z,26.33
2019-04-07T15:25:27.685Z,25.59
2019-04-07T15:27:58.918Z,25.68
2019-04-07T15:30:27.659Z,27.47
2019-04-07T15:32:58.525Z,27.41
2019-04-07T15:35:27.769Z,26.80
2019-04-07T15:37:58.067Z,25.89
2019-04-07T15:40:30.828Z,25.69
2019-04-07T15:43:03.915Z,24.72
2019-04-07T15:45:30.963Z,24.58
2019-04-07T15:48:00.696Z,25.25
2019-04-07T15:50:30.643Z,25.16
2019-04-07T15:53:00.508Z,24.54
2019-04-07T15:55:43.207Z,24.99
2019-04-07T15:58:00.737Z,25.11
2019-04-07T16:00:32.314Z,25.76
2019-04-07T16:03:02.403Z,24.74
2019-04-07T16:05:37.783Z,25.65
2019-04-07T16:08:04.248Z,24.91
2019-04-07T16:10:33.791Z,24.18
2019-04-07T16:13:03.050Z,24.89
2019-04-07T16:15:32.246Z,24.72
2019-04-07T16:18:05.424Z,25.62
2019-04-07T16:20:38.021Z,26.62
2019-04-07T16:23:05.792Z,24.55
2019-04-07T16:25:34.956Z,24.14
2019-04-07T16:28:04.322Z,24.17
2019-04-07T16:30:34.025Z,23.42
2019-04-07T16:33:05.474Z,24.06
2019-04-07T16:35:34.568Z,23.57
2019-04-07T16:38:03.891Z,24.64
2019-04-07T16:40:33.941Z,24.45
2019-04-07T16:43:11.544Z,24.15
2019-04-07T16:45:34.207Z,23.69
2019-04-07T16:48:04.977Z,23.97
2019-04-07T16:50:35.057Z,24.17
2019-04-07T16:53:06.585Z,24.76
2019-04-07T16:55:41.614Z,24.03
2019-04-07T16:58:11.817Z,25.07
2019-04-07T17:00:41.957Z,23.76
2019-04-07T17:03:13.218Z,23.39
2019-04-07T17:05:43.079Z,23.17
2019-04-07T17:08:12.942Z,22.75
2019-04-07T17:10:42.439Z,22.96
2019-04-07T17:13:19.640Z,22.90
2019-04-07T17:15:43.210Z,22.60
2019-04-07T17:18:41.564Z,22.43
2019-04-07T17:21:18.383Z,22.15
2019-04-07T17:23:48.077Z,21.69
2019-04-07T17:26:18.542Z,21.50
2019-04-07T17:28:50.034Z,21.41
2019-04-07T17:31:20.863Z,21.47
2019-04-07T17:33:50.867Z,21.23
2019-04-07T17:36:22.658Z,21.47
2019-04-07T17:39:14.848Z,20.68
2019-04-07T17:41:48.332Z,20.99
2019-04-07T17:44:41.391Z,20.14
2019-04-07T17:47:35.456Z,19.74
2019-04-07T17:50:38.959Z,19.47
2019-04-07T17:53:27.053Z,19.51
2019-04-07T17:56:07.332Z,19.68
2019-04-07T17:59:04.591Z,19.36
2019-04-07T18:01:54.399Z,19.25
2019-04-07T18:04:57.133Z,19.03
2019-04-07T18:07:38.231Z,18.79
2019-04-07T18:10:27.728Z,18.29
2019-04-07T18:13:22.688Z,17.92
2019-04-07T18:16:06.349Z,17.51
2019-04-07T18:18:56.230Z,17.28
2019-04-07T18:21:51.663Z,17.04
2019-04-07T18:24:34.131Z,16.81
2019-04-07T18:27:21.146Z,16.51
2019-04-07T18:29:59.628Z,16.37
2019-04-07T18:32:49.402Z,16.24
2019-04-07T18:35:34.816Z,16.07
2019-04-07T18:38:30.418Z,16.05
2019-04-07T18:41:34.033Z,15.86
2019-04-07T18:44:18.324Z,15.65
2019-04-07T18:47:10.548Z,15.57
2019-04-07T18:50:04.067Z,15.35
2019-04-07T18:52:46.840Z,15.18
2019-04-07T18:55:37.134Z,15.06
2019-04-07T18:58:31.249Z,14.96
2019-04-07T19:01:25.273Z,14.97
2019-04-07T19:04:04.565Z,14.92
2019-04-07T19:06:50.928Z,14.81
2019-04-07T19:09:45.559Z,14.71
2019-04-07T19:12:23.103Z,14.48
2019-04-07T19:15:22.132Z,14.45
2019-04-07T19:18:11.874Z,14.31
2019-04-07T19:20:59.183Z,14.21
2019-04-07T19:23:50.800Z,14.15
2019-04-07T19:26:31.486Z,14.20
2019-04-07T19:29:21.497Z,14.04
2019-04-07T19:32:09.607Z,13.89
2019-04-07T19:35:13.211Z,13.69
2019-04-07T19:37:53.954Z,13.62
2019-04-07T19:40:49.257Z,13.48
2019-04-07T19:43:46.707Z,13.39
2019-04-07T19:46:33.700Z,13.31
2019-04-07T19:49:25.533Z,13.21
2019-04-07T19:52:14.132Z,13.18
2019-04-07T19:54:53.272Z,13.07
2019-04-07T19:57:33.068Z,13.00
2019-04-07T20:00:26.145Z,12.86
2019-04-07T20:03:11.459Z,12.70
2019-04-07T20:06:00.842Z,12.68
2019-04-07T20:08:56.300Z,12.71
2019-04-07T20:11:53.207Z,12.65
2019-04-07T20:14:58.582Z,12.52
2019-04-07T20:17:38.865Z,12.38
2019-04-07T20:20:25.841Z,12.37
2019-04-07T20:23:18.817Z,12.17
2019-04-07T20:26:06.558Z,12.24
2019-04-07T20:28:47.558Z,12.30
2019-04-07T20:31:38.727Z,12.33
2019-04-07T20:34:13.979Z,12.31
2019-04-07T20:37:01.819Z,12.39
2019-04-07T20:40:00.165Z,12.35
2019-04-07T20:42:57.465Z,12.43
2019-04-07T20:45:54.005Z,12.35
2019-04-07T20:48:41.137Z,12.13
2019-04-07T20:51:28.096Z,12.01
2019-04-07T20:54:15.294Z,11.95
2019-04-07T20:57:03.009Z,11.94
2019-04-07T20:59:55.169Z,11.81
2019-04-07T21:03:06.535Z,11.82
2019-04-07T21:05:53.507Z,11.83
2019-04-07T21:08:40.709Z,12.07
2019-04-07T21:11:17.511Z,11.92
2019-04-07T21:14:23.955Z,11.83
2019-04-07T21:17:01.618Z,11.87
2019-04-07T21:19:52.956Z,11.79
2019-04-07T21:22:31.452Z,11.64
2019-04-07T21:25:31.832Z,11.57
2019-04-07T21:28:08.913Z,11.61
2019-04-07T21:30:57.848Z,11.52
2019-04-07T21:33:50.730Z,11.42
2019-04-07T21:36:45.208Z,11.39
2019-04-07T21:39:32.981Z,11.51
2019-04-07T21:42:30.765Z,11.54
2019-04-07T21:45:37.168Z,11.42
2019-04-07T21:48:28.668Z,11.28
2019-04-07T21:51:16.631Z,11.14
2019-04-07T21:54:01.251Z,11.18
2019-04-07T21:56:46.078Z,11.26
2019-04-07T21:59:37.380Z,11.09
2019-04-07T22:02:24.233Z,10.95
2019-04-07T22:05:05.014Z,11.27
2019-04-07T22:08:03.781Z,11.14
2019-04-07T22:10:30.693Z,10.93
2019-04-07T22:13:03.672Z,10.76
2019-04-07T22:15:41.483Z,10.82
2019-04-07T22:18:06.282Z,10.75
2019-04-07T22:20:32.838Z,10.67
2019-04-07T22:23:04.048Z,10.52
2019-04-07T22:25:36.151Z,10.45
2019-04-07T22:28:06.198Z,10.43
2019-04-07T22:30:39.246Z,10.30
2019-04-07T22:33:06.263Z,10.30
2019-04-07T22:35:38.315Z,10.19
2019-04-07T22:38:07.226Z,10.24
2019-04-07T22:40:39.038Z,10.17
2019-04-07T22:43:07.679Z,10.18
2019-04-07T22:45:37.175Z,10.14
2019-04-07T22:48:08.267Z,10.15
2019-04-07T22:50:38.838Z,10.11
2019-04-07T22:53:09.370Z,10.20
2019-04-07T22:55:38.770Z,10.21
2019-04-07T22:58:07.935Z,10.15
2019-04-07T23:00:37.155Z,10.15
2019-04-07T23:03:06.310Z,10.23
2019-04-07T23:05:35.477Z,10.30
2019-04-07T23:08:04.712Z,10.27
2019-04-07T23:10:33.968Z,10.31
2019-04-07T23:13:03.647Z,10.45
2019-04-07T23:15:42.274Z,10.57
2019-04-07T23:18:04.067Z,10.53
2019-04-07T23:20:33.389Z,10.36
2019-04-07T23:23:02.738Z,10.24
2019-04-07T23:25:32.270Z,10.48
2019-04-07T23:28:02.712Z,10.57
2019-04-07T23:30:31.953Z,10.61
2019-04-07T23:33:01.871Z,10.48
2019-04-07T23:35:32.989Z,10.38
2019-04-07T23:38:03.663Z,10.25
2019-04-07T23:40:33.004Z,10.19
2019-04-07T23:43:02.644Z,10.15
2019-04-07T23:45:31.844Z,10.24
2019-04-07T23:48:02.590Z,10.17
2019-04-07T23:50:31.749Z,10.25
2019-04-07T23:53:21.808Z,10.32
2019-04-07T23:55:52.079Z,10.36
2019-04-07T23:58:21.520Z,10.36
